Time;durP1;ratioP1;P1;durP2;ratioP2;P2;SDS_P1;SDS_P2;PMS_P1;PMS_P2;Temp;Humidity;BMP_temperature;BMP_pressure;BME280_temperature;BME280_humidity;BME280_pressure;Samples;Min_cycle;Max_cycle;Signal;HPM_P1;HPM_P2
2022/09/25 10:55:30;;;;;;;3.58;0.35;;;14.90;1.00;;;;;;4796399;29;20093;-92
2022/09/25 10:58:47;;;;;;;1.73;0.63;;;15.00;1.00;;;;;;4774528;30;20083;-92
2022/09/25 11:01:16;;;;;;;2.05;0.50;;;15.00;1.00;;;;;;4790806;29;20073;-91
2022/09/25 11:03:55;;;;;;;2.30;0.55;;;15.10;1.00;;;;;;4788808;30;20126;-92
2022/09/25 11:06:32;;;;;;;3.97;0.80;;;15.20;1.00;;;;;;4788961;29;20116;-91
2022/09/25 11:08:59;;;;;;;4.32;0.73;;;15.30;1.00;;;;;;4789037;29;20138;-90
2022/09/25 11:11:27;;;;;;;1.92;0.35;;;15.50;1.00;;;;;;4773689;30;20054;-91
2022/09/25 11:13:59;;;;;;;1.48;0.30;;;15.50;1.00;;;;;;4803448;29;20100;-90
2022/09/25 11:16:45;;;;;;;4.15;0.50;;;15.50;1.00;;;;;;4788032;29;20494;-89
2022/09/25 11:19:20;;;;;;;5.47;0.28;;;15.60;1.00;;;;;;4788452;29;20609;-90
2022/09/25 11:22:13;;;;;;;2.47;0.73;;;15.60;1.00;;;;;;4788608;29;20051;-90
2022/09/25 11:24:52;;;;;;;1.42;0.43;;;15.70;1.00;;;;;;4788511;30;20047;-92
2022/09/25 11:27:31;;;;;;;1.48;0.30;;;15.60;1.00;;;;;;4802822;29;20052;-91
2022/09/25 11:30:24;;;;;;;2.22;0.30;;;15.60;1.00;;;;;;4788480;29;20097;-91
2022/09/25 11:33:22;;;;;;;0.68;0.30;;;15.50;1.00;;;;;;4800441;29;20525;-90
2022/09/25 11:36:11;;;;;;;2.35;0.20;;;15.50;1.00;;;;;;4789014;29;20051;-89
2022/09/25 11:41:55;;;;;;;1.25;0.28;;;15.60;1.00;;;;;;4790014;29;20055;-91
2022/09/25 11:44:41;;;;;;;1.02;0.28;;;15.50;1.00;;;;;;4792804;29;20058;-91
2022/09/25 11:47:23;;;;;;;0.50;0.20;;;15.50;1.00;;;;;;4811668;29;20098;-89
2022/09/25 11:49:53;;;;;;;0.43;0.10;;;15.60;1.00;;;;;;4826684;29;20054;-88
2022/09/25 11:52:46;;;;;;;2.78;0.28;;;15.60;1.00;;;;;;4811688;29;20412;-89
2022/09/25 11:55:38;;;;;;;0.68;0.20;;;15.70;1.00;;;;;;4811949;29;20042;-88
2022/09/25 11:59:03;;;;;;;1.25;0.28;;;15.80;1.00;;;;;;4791830;29;20498;-90
2022/09/25 12:01:40;;;;;;;1.42;0.40;;;15.90;1.00;;;;;;4823384;29;20152;-89
2022/09/25 12:04:11;;;;;;;1.60;0.57;;;15.90;1.00;;;;;;4824152;29;20122;-87
2022/09/25 12:07:26;;;;;;;1.75;0.10;;;16.00;1.00;;;;;;4793568;29;20062;-89
2022/09/25 12:10:11;;;;;;;0.50;0.10;;;16.00;1.00;;;;;;4793736;29;20087;-89
2022/09/25 12:12:51;;;;;;;1.48;0.17;;;16.00;1.00;;;;;;4787711;30;20095;-88
2022/09/25 12:15:46;;;;;;;0.85;0.20;;;16.10;1.00;;;;;;4772061;30;20048;-89
2022/09/25 12:18:43;;;;;;;2.83;0.50;;;16.00;1.00;;;;;;4786862;30;20134;-90
2022/09/25 12:21:18;;;;;;;1.95;0.32;;;16.00;1.00;;;;;;4787430;29;20111;-90
2022/09/25 12:24:00;;;;;;;0.60;0.40;;;16.00;1.00;;;;;;4772951;30;20484;-89
2022/09/25 12:26:53;;;;;;;1.40;0.40;;;16.20;1.00;;;;;;4787062;29;20108;-91
2022/09/25 12:29:43;;;;;;;3.03;0.20;;;16.30;1.00;;;;;;4787872;30;20507;-90
2022/09/25 12:32:35;;;;;;;1.17;0.10;;;16.30;1.00;;;;;;4787401;29;20051;-90
2022/09/25 12:35:11;;;;;;;1.10;0.52;;;16.40;1.00;;;;;;4788331;29;20126;-88
2022/09/25 12:37:45;;;;;;;1.00;0.30;;;16.30;1.00;;;;;;4787627;29;20052;-90
2022/09/25 12:40:28;;;;;;;4.57;0.35;;;16.50;1.00;;;;;;4788180;30;20177;-89
2022/09/25 12:43:06;;;;;;;2.13;0.20;;;16.60;1.00;;;;;;4788133;29;20474;-90
2022/09/25 12:45:42;;;;;;;1.10;0.30;;;16.60;1.00;;;;;;4786817;29;20063;-90
2022/09/25 12:48:33;;;;;;;1.00;0.13;;;16.70;1.00;;;;;;4788313;29;20100;-90
2022/09/25 12:51:24;;;;;;;1.05;0.10;;;16.80;1.00;;;;;;4772190;30;20071;-91
2022/09/25 14:55:00;;;;;;;0.88;0.43;;;19.60;1.00;;;;;;5713801;24;20153;-91
2022/09/25 15:14:15;;;;;;;;;;;;;;;;;;;;;
2022/09/25 15:18:14;;;;;;;;;;;;;;;;;;;;;
2022/09/25 15:21:18;;;;;;;0.95;0.32;;;19.40;1.00;;;;;;4698843;30;20049;-92
2022/09/25 15:23:51;;;;;;;1.40;0.40;;;19.30;1.00;;;;;;4691756;30;20065;-92
